createdAt,value
2024-03-12T00:01:10.782Z,4.10
2024-03-12T00:03:45.115Z,3.10
2024-03-12T00:06:12.649Z,3.30
2024-03-12T00:08:41.447Z,3.10
2024-03-12T00:11:09.785Z,4.00
2024-03-12T00:13:37.358Z,4.00
2024-03-12T00:16:04.988Z,3.80
2024-03-12T00:18:34.886Z,3.30
2024-03-12T00:21:02.604Z,2.30
2024-03-12T00:23:30.333Z,4.70
2024-03-12T00:26:00.265Z,4.80
2024-03-12T00:28:27.934Z,3.40
2024-03-12T00:30:55.705Z,3.80
2024-03-12T00:33:23.238Z,2.80
2024-03-12T00:35:50.662Z,3.40
2024-03-12T00:38:19.495Z,2.70
2024-03-12T00:40:49.768Z,3.40
2024-03-12T00:43:16.931Z,2.60
2024-03-12T00:45:46.413Z,3.10
2024-03-12T00:48:19.542Z,2.40
2024-03-12T00:50:47.701Z,2.90
2024-03-12T00:53:15.522Z,3.70
2024-03-12T00:55:43.335Z,3.00
2024-03-12T00:58:12.660Z,3.30
2024-03-12T01:00:41.754Z,2.90
2024-03-12T01:03:13.516Z,2.70
2024-03-12T01:05:41.079Z,3.10
2024-03-12T01:08:09.529Z,2.50
2024-03-12T01:10:37.108Z,2.10
2024-03-12T01:13:11.247Z,3.40
2024-03-12T01:15:39.930Z,2.20
2024-03-12T01:18:10.183Z,2.90
2024-03-12T01:20:37.891Z,2.70
2024-03-12T01:23:07.225Z,1.80
2024-03-12T01:25:38.107Z,2.30
2024-03-12T01:28:07.508Z,2.20
2024-03-12T01:30:36.154Z,2.30
2024-03-12T01:33:07.393Z,2.50
2024-03-12T01:35:40.994Z,2.40
2024-03-12T01:38:12.004Z,2.60
2024-03-12T01:40:40.719Z,2.10
2024-03-12T01:43:08.882Z,2.70
2024-03-12T01:45:37.966Z,2.30
2024-03-12T01:48:10.623Z,2.00
2024-03-12T01:50:40.997Z,2.30
2024-03-12T01:53:09.289Z,3.20
2024-03-12T01:55:39.746Z,2.40
2024-03-12T01:58:07.002Z,2.00
2024-03-12T02:00:35.024Z,2.60
2024-03-12T02:03:02.488Z,2.60
2024-03-12T02:05:29.584Z,2.20
2024-03-12T02:07:56.692Z,2.80
2024-03-12T02:10:26.568Z,3.10
2024-03-12T02:12:53.941Z,2.80
2024-03-12T02:15:24.215Z,2.40
2024-03-12T02:17:54.843Z,3.40
2024-03-12T02:20:23.325Z,2.10
2024-03-12T02:22:57.446Z,2.40
2024-03-12T02:25:24.995Z,2.90
2024-03-12T02:27:53.384Z,3.50
2024-03-12T02:30:21.310Z,2.40
2024-03-12T02:32:49.264Z,2.90
2024-03-12T02:35:17.501Z,4.30
2024-03-12T02:37:45.236Z,2.80
2024-03-12T02:40:16.833Z,4.70
2024-03-12T02:42:45.877Z,2.50
2024-03-12T02:45:17.187Z,2.90
2024-03-12T02:47:47.039Z,3.20
2024-03-12T02:50:15.321Z,3.00
2024-03-12T02:52:43.694Z,2.70
2024-03-12T02:55:11.308Z,2.20
2024-03-12T02:57:38.760Z,3.50
2024-03-12T03:00:16.404Z,2.90
2024-03-12T03:02:45.543Z,2.90
2024-03-12T03:05:14.564Z,2.40
2024-03-12T03:07:42.793Z,4.40
2024-03-12T03:10:12.095Z,2.70
2024-03-12T03:12:40.810Z,3.70
2024-03-12T03:15:09.204Z,3.60
2024-03-12T03:17:36.994Z,2.90
2024-03-12T03:20:06.578Z,2.30
2024-03-12T03:22:34.019Z,3.70
2024-03-12T03:25:01.213Z,3.30
2024-03-12T03:27:28.628Z,2.50
2024-03-12T03:29:58.439Z,3.00
2024-03-12T03:32:25.966Z,3.20
2024-03-12T03:34:53.974Z,2.60
2024-03-12T03:37:23.909Z,3.00
2024-03-12T03:39:51.009Z,3.80
2024-03-12T03:42:18.204Z,2.60
2024-03-12T03:44:45.266Z,2.70
2024-03-12T03:47:12.265Z,3.40
2024-03-12T03:49:39.353Z,5.40
2024-03-12T03:52:06.515Z,4.70
2024-03-12T03:54:33.739Z,5.70
2024-03-12T03:57:00.826Z,4.10
2024-03-12T03:59:28.946Z,3.90
2024-03-12T04:01:56.639Z,4.70
2024-03-12T04:04:24.253Z,3.40
2024-03-12T04:06:55.136Z,2.20
2024-03-12T04:09:22.678Z,2.60
2024-03-12T04:11:50.310Z,3.20
2024-03-12T04:14:19.486Z,3.30
2024-03-12T04:16:46.979Z,3.40
2024-03-12T04:19:15.164Z,1.90
2024-03-12T04:21:45.461Z,3.10
2024-03-12T04:24:15.288Z,2.80
2024-03-12T04:26:42.657Z,3.40
2024-03-12T04:29:11.743Z,2.30
2024-03-12T04:31:39.976Z,2.30
2024-03-12T04:34:10.015Z,3.50
2024-03-12T04:36:37.308Z,2.00
2024-03-12T04:39:24.144Z,2.20
2024-03-12T04:41:51.207Z,2.60
2024-03-12T04:44:18.603Z,2.10
2024-03-12T04:46:45.779Z,3.70
2024-03-12T04:49:13.348Z,3.70
2024-03-12T04:51:42.013Z,2.00
2024-03-12T04:54:09.085Z,3.20
2024-03-12T04:56:36.116Z,1.60
2024-03-12T04:59:03.146Z,1.90
2024-03-12T05:01:30.922Z,1.50
2024-03-12T05:04:02.243Z,2.30
2024-03-12T05:06:35.138Z,2.10
2024-03-12T05:09:02.591Z,1.50
2024-03-12T05:11:29.677Z,1.90
2024-03-12T05:13:56.749Z,1.40
2024-03-12T05:16:27.448Z,1.30
2024-03-12T05:18:54.851Z,1.20
2024-03-12T05:21:22.924Z,2.10
2024-03-12T05:23:52.849Z,1.90
2024-03-12T05:26:19.857Z,1.70
2024-03-12T05:28:48.420Z,1.40
2024-03-12T05:31:22.422Z,2.30
2024-03-12T05:33:50.182Z,1.80
2024-03-12T05:36:21.606Z,1.60
2024-03-12T05:39:05.858Z,3.10
2024-03-12T05:41:50.433Z,1.80
2024-03-12T05:44:36.415Z,1.50
2024-03-12T05:47:22.274Z,2.10
2024-03-12T05:49:49.281Z,1.50
2024-03-12T05:52:17.294Z,2.20
2024-03-12T05:54:45.553Z,2.70
2024-03-12T05:57:12.780Z,4.40
2024-03-12T05:59:39.975Z,2.20
2024-03-12T06:02:07.441Z,4.40
2024-03-12T06:04:34.499Z,2.60
2024-03-12T06:07:03.398Z,1.90
2024-03-12T06:09:30.933Z,1.90
2024-03-12T06:11:58.142Z,2.10
2024-03-12T06:14:26.851Z,5.30
2024-03-12T06:16:54.024Z,2.30
2024-03-12T06:19:21.080Z,2.10
2024-03-12T06:21:48.164Z,1.70
2024-03-12T06:24:15.822Z,1.80
2024-03-12T06:26:43.864Z,1.30
2024-03-12T06:29:11.580Z,1.40
2024-03-12T06:31:38.997Z,2.10
2024-03-12T06:34:06.265Z,2.30
2024-03-12T06:36:33.734Z,3.70
2024-03-12T06:39:02.190Z,2.10
2024-03-12T06:41:29.226Z,1.90
2024-03-12T06:43:56.280Z,1.30
2024-03-12T06:46:23.837Z,2.50
2024-03-12T06:48:50.988Z,3.70
2024-03-12T06:51:18.061Z,4.30
2024-03-12T06:53:46.306Z,2.00
2024-03-12T06:56:14.153Z,2.30
2024-03-12T06:58:46.423Z,2.30
2024-03-12T07:01:15.476Z,1.80
2024-03-12T07:03:44.867Z,2.60
2024-03-12T07:06:12.812Z,3.00
2024-03-12T07:08:40.700Z,4.00
2024-03-12T07:11:09.178Z,2.80
2024-03-12T07:13:41.645Z,4.70
2024-03-12T07:16:11.405Z,3.70
2024-03-12T07:18:38.837Z,2.70
2024-03-12T07:21:07.657Z,18.20
2024-03-12T07:23:34.757Z,4.30
2024-03-12T07:26:03.380Z,4.60
2024-03-12T07:28:30.548Z,4.40
2024-03-12T07:30:57.625Z,6.20
2024-03-12T07:33:25.068Z,4.70
2024-03-12T07:35:52.962Z,23.50
2024-03-12T07:38:20.065Z,64.30
2024-03-12T07:40:47.217Z,68.30
2024-03-12T07:43:15.777Z,131.60
2024-03-12T07:45:48.324Z,100.00
2024-03-12T07:48:18.442Z,142.50
2024-03-12T07:50:45.730Z,80.30
2024-03-12T07:53:12.792Z,109.30
2024-03-12T07:55:40.214Z,43.60
2024-03-12T07:58:07.291Z,22.40
2024-03-12T08:00:34.411Z,16.10
2024-03-12T08:03:01.614Z,9.50
2024-03-12T08:05:32.228Z,6.00
2024-03-12T08:08:01.349Z,6.60
2024-03-12T08:10:28.490Z,4.60
2024-03-12T08:12:55.915Z,9.10
2024-03-12T08:15:23.047Z,5.80
2024-03-12T08:17:52.846Z,6.90
2024-03-12T08:20:23.867Z,5.40
2024-03-12T08:22:51.254Z,5.00
2024-03-12T08:25:21.719Z,5.10
2024-03-12T08:27:50.116Z,4.30
2024-03-12T08:30:17.930Z,5.30
2024-03-12T08:32:45.405Z,5.90
2024-03-12T08:35:12.965Z,6.60
2024-03-12T08:37:40.168Z,6.10
2024-03-12T08:40:14.663Z,5.40
2024-03-12T08:42:50.437Z,8.70
2024-03-12T08:45:24.918Z,6.70
2024-03-12T08:47:52.581Z,10.60
2024-03-12T08:50:20.264Z,10.70
2024-03-12T08:52:47.736Z,8.80
2024-03-12T08:55:15.554Z,8.40
2024-03-12T08:57:43.539Z,6.20
2024-03-12T09:00:13.561Z,6.80
2024-03-12T09:02:40.955Z,11.70
2024-03-12T09:05:09.370Z,8.50
2024-03-12T09:07:39.835Z,6.20
2024-03-12T09:10:13.231Z,5.80
2024-03-12T09:12:42.384Z,5.70
2024-03-12T09:15:12.545Z,6.20
2024-03-12T09:17:39.832Z,6.10
2024-03-12T09:20:11.910Z,7.80
2024-03-12T09:22:39.364Z,5.20
2024-03-12T09:25:07.494Z,9.80
2024-03-12T09:27:35.371Z,8.60
2024-03-12T09:30:04.629Z,5.80
2024-03-12T09:32:31.751Z,23.10
2024-03-12T09:34:59.246Z,37.80
2024-03-12T09:37:28.594Z,17.30
2024-03-12T09:39:55.773Z,15.20
2024-03-12T09:42:25.988Z,12.60
2024-03-12T09:44:53.381Z,7.60
2024-03-12T09:47:21.703Z,7.20
2024-03-12T09:49:50.340Z,5.90
2024-03-12T09:52:17.792Z,3.60
2024-03-12T09:54:44.909Z,5.30
2024-03-12T09:57:12.453Z,3.70
2024-03-12T09:59:41.771Z,8.00
2024-03-12T10:02:09.620Z,4.90
2024-03-12T10:04:36.784Z,4.90
2024-03-12T10:07:03.884Z,3.10
2024-03-12T10:09:31.170Z,3.50
2024-03-12T10:12:03.280Z,2.80
2024-03-12T10:14:31.564Z,3.10
2024-03-12T10:17:17.161Z,3.60
2024-03-12T10:19:46.949Z,1.80
2024-03-12T10:22:18.202Z,2.70
2024-03-12T10:24:48.586Z,4.30
2024-03-12T10:27:16.245Z,2.00
2024-03-12T10:29:44.111Z,3.30
2024-03-12T10:32:21.185Z,4.80
2024-03-12T10:34:48.669Z,2.80
2024-03-12T10:37:26.340Z,3.40
2024-03-12T10:39:53.460Z,4.10
2024-03-12T10:42:22.658Z,3.00
2024-03-12T10:44:50.108Z,3.80
2024-03-12T10:47:18.369Z,3.60
2024-03-12T10:49:49.343Z,5.40
2024-03-12T10:52:20.537Z,2.60
2024-03-12T10:54:54.521Z,3.90
2024-03-12T10:57:32.406Z,2.60
2024-03-12T11:00:09.408Z,3.50
2024-03-12T11:02:41.048Z,3.30
2024-03-12T11:05:08.234Z,3.20
2024-03-12T11:07:36.769Z,2.60
2024-03-12T11:10:05.367Z,2.70
2024-03-12T11:12:33.746Z,3.50
2024-03-12T11:15:01.148Z,3.70
2024-03-12T11:17:29.121Z,2.30
2024-03-12T11:20:00.282Z,12.00
2024-03-12T11:22:29.723Z,10.10
2024-03-12T11:24:57.930Z,9.10
2024-03-12T11:27:28.480Z,6.50
2024-03-12T11:30:19.527Z,5.50
2024-03-12T11:32:50.369Z,5.60
2024-03-12T11:35:24.272Z,4.40
2024-03-12T11:38:00.582Z,7.20
2024-03-12T11:40:41.552Z,6.20
2024-03-12T11:43:12.730Z,4.50
2024-03-12T11:45:41.412Z,3.40
2024-03-12T11:48:11.880Z,2.50
2024-03-12T11:50:44.055Z,3.60
2024-03-12T11:53:24.203Z,25.70
2024-03-12T11:56:21.726Z,18.90
2024-03-12T11:59:03.162Z,10.70
2024-03-12T12:02:00.861Z,7.60
2024-03-12T12:04:28.154Z,5.30
2024-03-12T12:06:57.395Z,3.50
2024-03-12T12:09:24.417Z,6.60
2024-03-12T12:11:52.258Z,4.20
2024-03-12T12:14:21.675Z,4.30
2024-03-12T12:16:57.436Z,4.30
2024-03-12T12:19:32.310Z,3.50
2024-03-12T12:22:05.985Z,2.90
2024-03-12T12:24:35.163Z,2.60
2024-03-12T12:27:02.891Z,1.90
2024-03-12T12:29:30.755Z,3.20
2024-03-12T12:31:58.386Z,3.30
2024-03-12T12:34:30.094Z,2.20
2024-03-12T12:36:57.647Z,3.30
2024-03-12T12:39:32.913Z,7.80
2024-03-12T12:42:14.991Z,6.80
2024-03-12T12:44:42.260Z,4.30
2024-03-12T12:47:11.618Z,4.30
2024-03-12T12:49:38.914Z,5.50
2024-03-12T12:52:06.505Z,4.90
2024-03-12T12:54:34.847Z,4.00
2024-03-12T12:57:02.938Z,4.60
2024-03-12T12:59:33.762Z,2.90
2024-03-12T13:02:13.082Z,3.80
2024-03-12T13:04:40.692Z,5.00
2024-03-12T13:07:09.592Z,4.80
2024-03-12T13:09:42.606Z,3.30
2024-03-12T13:12:10.850Z,3.50
2024-03-12T13:14:43.362Z,2.70
2024-03-12T13:17:11.405Z,3.10
2024-03-12T13:19:38.549Z,2.40
2024-03-12T13:22:13.180Z,2.70
2024-03-12T13:24:45.596Z,1.40
2024-03-12T13:27:13.784Z,2.70
2024-03-12T13:29:44.057Z,1.90
2024-03-12T13:32:11.731Z,2.70
2024-03-12T13:34:38.838Z,1.80
2024-03-12T13:37:08.653Z,2.60
2024-03-12T13:39:37.471Z,3.00
2024-03-12T13:42:06.758Z,4.40
2024-03-12T13:44:33.979Z,180.40
2024-03-12T13:47:01.585Z,46.30
2024-03-12T13:49:29.291Z,47.10
2024-03-12T13:51:56.734Z,18.50
2024-03-12T13:54:23.807Z,10.10
2024-03-12T13:56:51.618Z,6.90
2024-03-12T13:59:20.103Z,6.50
2024-03-12T14:01:50.300Z,3.60
2024-03-12T14:04:18.606Z,3.00
2024-03-12T14:06:45.786Z,3.70
2024-03-12T14:09:16.357Z,3.90
2024-03-12T14:11:43.834Z,6.00
2024-03-12T14:14:10.962Z,6.70
2024-03-12T14:16:45.702Z,3.30
2024-03-12T14:19:13.305Z,18.20
2024-03-12T14:21:40.409Z,8.20
2024-03-12T14:24:07.502Z,5.00
2024-03-12T14:26:34.865Z,7.90
2024-03-12T14:29:01.978Z,5.30
2024-03-12T14:31:29.104Z,5.30
2024-03-12T14:33:56.247Z,4.30
2024-03-12T14:36:23.306Z,4.00
2024-03-12T14:38:53.274Z,5.70
2024-03-12T14:41:24.289Z,4.20
2024-03-12T14:43:51.501Z,11.30
2024-03-12T14:46:19.178Z,12.70
2024-03-12T14:48:47.317Z,4.80
2024-03-12T14:51:14.487Z,20.20
2024-03-12T14:53:41.526Z,12.90
2024-03-12T14:56:08.580Z,6.00
2024-03-12T14:58:35.631Z,4.90
2024-03-12T15:01:02.959Z,4.70
2024-03-12T15:03:30.804Z,3.30
2024-03-12T15:05:58.848Z,3.70
2024-03-12T15:08:25.918Z,4.30
2024-03-12T15:10:53.561Z,2.90
2024-03-12T15:13:21.830Z,2.90
2024-03-12T15:15:49.268Z,1.60
2024-03-12T15:18:18.616Z,2.00
2024-03-12T15:20:47.606Z,2.60
2024-03-12T15:23:14.748Z,1.40
2024-03-12T15:25:43.332Z,2.10
2024-03-12T15:28:10.514Z,2.30
2024-03-12T15:30:40.260Z,2.80
2024-03-12T15:33:08.565Z,3.80
2024-03-12T15:35:36.903Z,1.90
2024-03-12T15:38:06.162Z,2.30
2024-03-12T15:40:33.873Z,1.90
2024-03-12T15:43:02.355Z,2.40
2024-03-12T15:45:29.515Z,2.30
2024-03-12T15:47:56.684Z,2.20
2024-03-12T15:50:23.859Z,5.10
2024-03-12T15:52:51.196Z,6.00
2024-03-12T15:55:18.706Z,7.00
2024-03-12T15:57:47.194Z,7.30
2024-03-12T16:00:15.857Z,8.70
2024-03-12T16:02:43.962Z,7.20
2024-03-12T16:05:11.506Z,7.70
2024-03-12T16:07:40.992Z,8.80
2024-03-12T16:10:11.661Z,8.50
2024-03-12T16:12:41.782Z,8.40
2024-03-12T16:15:12.229Z,7.90
2024-03-12T16:17:39.775Z,5.20
2024-03-12T16:20:14.464Z,6.70
2024-03-12T16:22:42.771Z,4.60
2024-03-12T16:25:10.166Z,4.90
2024-03-12T16:27:38.052Z,5.10
2024-03-12T16:30:05.821Z,3.30
